Time;durP1;ratioP1;P1;durP2;ratioP2;P2;SDS_P1;SDS_P2;PMS_P1;PMS_P2;Temp;Humidity;BMP_temperature;BMP_pressure;BME280_temperature;BME280_humidity;BME280_pressure;Samples;Min_cycle;Max_cycle;Signal;HPM_P1;HPM_P2
2023/08/16 00:00:06;;;;;;;;;;;;;;;23.73;79.55;99476.06;304289;32;4092;-76
2023/08/16 00:00:16;;;;;;;;;;;;;;;23.73;79.54;99476.91;305246;32;824;-76
2023/08/16 00:00:27;;;;;;;;;;;;;;;23.72;79.55;99479.72;302506;32;4402;-76
2023/08/16 00:00:37;;;;;;;;;;;;;;;23.70;79.40;99477.19;301047;32;4533;-76
2023/08/16 00:00:47;;;;;;;;;;;;;;;23.67;79.91;99488.19;301224;32;1333;-76
2023/08/16 00:00:58;;;;;;;;;;;;;;;23.66;79.73;99483.00;299642;32;4325;-76
2023/08/16 00:01:10;;;;;;;;;;;;;;;23.64;79.90;99477.81;300007;32;3273;-76
2023/08/16 00:01:20;;;;;;;;;;;;;;;23.64;79.74;99480.47;301901;32;3221;-76
2023/08/16 00:01:30;;;;;;;;;;;;;;;23.64;79.76;99480.47;302318;32;821;-75
2023/08/16 00:01:40;;;;;;;;;;;;;;;23.65;79.73;99483.97;301811;32;4370;-75
2023/08/16 00:01:51;;;;;;;;;;;;;;;23.65;79.79;99478.63;301474;32;5683;-75
2023/08/16 00:02:02;;;;;;;;;;;;;;;23.66;79.45;99474.97;303389;32;908;-75
2023/08/16 00:02:12;;;;;;;;;;;;;;;23.66;79.75;99474.97;299695;32;5917;-75
2023/08/16 00:02:23;;;;;;;;;;;;;;;23.68;79.87;99478.34;300618;32;5944;-75
2023/08/16 00:02:33;;;;;;;;;;;;;;;23.68;79.59;99481.00;299107;33;1245;-75
2023/08/16 00:02:43;;;;;;;;;;;;;;;23.69;79.62;99475.53;300294;32;5915;-75
2023/08/16 00:02:53;;;;;;;;;;;;;;;23.70;79.86;99479.03;300573;32;6168;-75
2023/08/16 00:03:04;;;;;;;;;;;;;;;23.71;79.70;99478.03;300320;32;6032;-75
2023/08/16 00:03:14;;;;;;;;;;;;;;;23.70;80.21;99471.84;301129;32;794;-75
2023/08/16 00:03:25;;;;;;;;;;;;;;;23.72;79.89;99480.56;299277;32;4664;-75
2023/08/16 00:03:35;;;;;;;;;;;;;;;23.73;79.54;99481.41;297639;32;4854;-75
2023/08/16 00:03:45;;;;;;;;;;;;;;;23.73;79.66;99476.06;300060;32;952;-75
2023/08/16 00:03:55;;;;;;;;;;;;;;;23.73;79.71;99476.06;295611;33;6220;-75
2023/08/16 00:04:06;;;;;;;;;;;;;;;23.74;79.85;99475.06;295757;33;7585;-75
2023/08/16 00:04:16;;;;;;;;;;;;;;;23.73;79.73;99481.41;298176;33;782;-75
2023/08/16 00:04:26;;;;;;;;;;;;;;;23.74;79.79;99483.09;291735;33;8327;-75
2023/08/16 00:04:36;;;;;;;;;;;;;;;23.74;79.75;99475.06;289543;33;8240;-75
2023/08/16 00:04:46;;;;;;;;;;;;;;;23.74;79.65;99483.09;290993;34;1748;-75
2023/08/16 00:04:57;;;;;;;;;;;;;;;23.74;79.80;99477.75;288954;33;7992;-75
2023/08/16 00:05:07;;;;;;;;;;;;;;;23.74;79.54;99477.75;286330;34;8671;-75
2023/08/16 00:05:17;;;;;;;;;;;;;;;23.74;79.66;99483.09;286498;34;1320;-75
2023/08/16 00:05:29;;;;;;;;;;;;;;;23.75;79.63;99476.75;286265;34;8611;-75
2023/08/16 00:05:42;;;;;;;;;;;;;;;23.75;79.61;99482.09;283483;34;7451;-75
2023/08/16 00:05:52;;;;;;;;;;;;;;;23.74;79.71;99478.59;280057;35;6353;-75
2023/08/16 00:06:12;;;;;;;;;;;;;;;23.75;79.61;99474.94;280090;35;1330;-75
2023/08/16 00:08:25;;;;;;;;;;;;;;;23.75;80.29;99474.09;2496635;27;19937;-75
2023/08/16 00:08:36;;;;;;;;;;;;;;;23.75;80.15;99474.94;354455;27;1268;-75
2023/08/16 00:08:46;;;;;;;;;;;;;;;23.76;80.31;99481.13;353291;28;827;-75
2023/08/16 00:08:58;;;;;;;;;;;;;;;23.76;80.62;99475.75;351805;28;1210;-75
2023/08/16 00:09:08;;;;;;;;;;;;;;;23.76;80.21;99476.59;349686;28;1456;-75
2023/08/16 00:09:19;;;;;;;;;;;;;;;23.76;80.30;99476.59;349060;28;1236;-75
2023/08/16 00:09:29;;;;;;;;;;;;;;;23.77;80.43;99482.78;350521;28;947;-75
2023/08/16 00:09:40;;;;;;;;;;;;;;;23.76;80.54;99476.59;350403;28;1164;-75
2023/08/16 00:09:50;;;;;;;;;;;;;;;23.76;80.77;99470.41;350380;28;876;-75
2023/08/16 00:10:00;;;;;;;;;;;;;;;23.75;80.40;99472.25;350332;28;1216;-75
2023/08/16 00:10:11;;;;;;;;;;;;;;;23.77;80.49;99472.09;348751;28;1259;-76
2023/08/16 00:10:21;;;;;;;;;;;;;;;23.76;80.44;99471.25;349090;28;1380;-76
2023/08/16 00:10:31;;;;;;;;;;;;;;;23.76;80.08;99470.41;348959;28;934;-76
2023/08/16 00:10:42;;;;;;;;;;;;;;;23.75;79.87;99466.91;349082;28;871;-76
2023/08/16 00:10:52;;;;;;;;;;;;;;;23.76;79.86;99470.41;349575;28;1191;-77
2023/08/16 00:11:03;;;;;;;;;;;;;;;23.76;79.71;99473.09;350489;28;824;-76
2023/08/16 00:11:13;;;;;;;;;;;;;;;23.75;80.05;99469.56;348449;28;2522;-76
2023/08/16 00:11:24;;;;;;;;;;;;;;;23.76;79.88;99470.41;346934;28;3021;-76
2023/08/16 00:11:34;;;;;;;;;;;;;;;23.75;80.01;99474.09;347749;28;962;-76
2023/08/16 00:11:45;;;;;;;;;;;;;;;23.76;79.97;99473.09;344845;28;1341;-75
2023/08/16 00:11:55;;;;;;;;;;;;;;;23.75;79.88;99476.75;346307;28;872;-75
2023/08/16 00:12:06;;;;;;;;;;;;;;;23.75;79.87;99474.09;347071;28;1467;-75
2023/08/16 00:12:16;;;;;;;;;;;;;;;23.76;80.15;99473.09;350106;28;1310;-75
2023/08/16 00:12:26;;;;;;;;;;;;;;;23.75;80.29;99479.44;349134;28;756;-75
2023/08/16 00:12:36;;;;;;;;;;;;;;;23.75;80.04;99476.75;349837;28;1125;-75
2023/08/16 00:12:48;;;;;;;;;;;;;;;23.74;80.07;99477.75;350383;28;950;-75
2023/08/16 00:12:58;;;;;;;;;;;;;;;23.74;80.05;99478.59;346242;28;1167;-76
2023/08/16 00:13:08;;;;;;;;;;;;;;;23.74;79.78;99472.41;346218;28;875;-75
2023/08/16 00:13:18;;;;;;;;;;;;;;;23.75;79.96;99474.09;350324;28;1222;-75
2023/08/16 00:13:29;;;;;;;;;;;;;;;23.75;80.09;99476.75;350783;28;1575;-75
2023/08/16 00:13:39;;;;;;;;;;;;;;;23.74;80.26;99469.72;350502;28;934;-75
2023/08/16 00:13:49;;;;;;;;;;;;;;;23.73;80.14;99466.22;348950;28;1260;-75
2023/08/16 00:14:00;;;;;;;;;;;;;;;23.74;80.27;99477.75;346083;28;1309;-75
2023/08/16 00:14:10;;;;;;;;;;;;;;;23.73;79.96;99473.41;343472;28;766;-75
2023/08/16 00:14:20;;;;;;;;;;;;;;;23.72;80.05;99474.38;344628;28;1696;-75
2023/08/16 00:14:31;;;;;;;;;;;;;;;23.71;80.18;99476.22;345062;28;928;-75
2023/08/16 00:14:41;;;;;;;;;;;;;;;23.70;80.01;99473.69;347597;28;1275;-75
2023/08/16 00:14:51;;;;;;;;;;;;;;;23.69;79.98;99474.69;346181;28;1174;-75
2023/08/16 00:15:01;;;;;;;;;;;;;;;23.67;80.13;99474.00;344711;28;1197;-75
2023/08/16 00:15:11;;;;;;;;;;;;;;;23.64;80.05;99479.63;343366;28;1304;-75
2023/08/16 00:15:22;;;;;;;;;;;;;;;23.62;80.22;99479.78;343482;28;1312;-75
2023/08/16 00:15:32;;;;;;;;;;;;;;;23.62;80.12;99474.44;343643;28;819;-75
2023/08/16 00:15:42;;;;;;;;;;;;;;;23.62;80.33;99473.59;343609;28;1172;-75
2023/08/16 00:15:52;;;;;;;;;;;;;;;23.61;80.14;99477.25;343507;28;1311;-75
2023/08/16 00:16:03;;;;;;;;;;;;;;;23.61;80.16;99474.59;343032;28;1559;-75
2023/08/16 00:16:13;;;;;;;;;;;;;;;23.61;80.15;99471.91;346172;28;825;-75
2023/08/16 00:16:23;;;;;;;;;;;;;;;23.61;79.85;99475.41;345974;28;1226;-75
2023/08/16 00:16:34;;;;;;;;;;;;;;;23.62;80.17;99473.59;343360;28;1530;-75
2023/08/16 00:16:44;;;;;;;;;;;;;;;23.62;80.03;99476.25;342123;28;1450;-75
2023/08/16 00:16:54;;;;;;;;;;;;;;;23.63;80.20;99470.78;340983;29;852;-75
2023/08/16 00:17:04;;;;;;;;;;;;;;;23.64;80.05;99476.97;340026;29;1687;-75
2023/08/16 00:17:14;;;;;;;;;;;;;;;23.63;80.45;99477.94;339497;28;1404;-75
2023/08/16 00:17:25;;;;;;;;;;;;;;;23.63;80.19;99470.78;342140;28;1281;-75
2023/08/16 00:17:35;;;;;;;;;;;;;;;23.65;80.47;99479.47;342200;28;998;-75
2023/08/16 00:17:45;;;;;;;;;;;;;;;23.65;80.20;99467.94;338182;29;1412;-75
2023/08/16 00:17:55;;;;;;;;;;;;;;;23.66;80.17;99464.28;338286;29;746;-75
2023/08/16 00:18:06;;;;;;;;;;;;;;;23.67;80.21;99468.66;340862;28;1637;-75
2023/08/16 00:18:16;;;;;;;;;;;;;;;23.66;80.44;99473.16;338580;29;1419;-75
2023/08/16 00:18:27;;;;;;;;;;;;;;;23.67;80.20;99474.00;335784;29;883;-75
2023/08/16 00:18:38;;;;;;;;;;;;;;;23.68;80.75;99476.50;333890;29;1982;-75
2023/08/16 00:18:48;;;;;;;;;;;;;;;23.68;80.43;99473.00;331887;29;1957;-76
2023/08/16 00:18:58;;;;;;;;;;;;;;;23.69;80.52;99480.03;333219;29;834;-76
2023/08/16 00:19:08;;;;;;;;;;;;;;;23.69;80.51;99472.84;336297;29;1717;-74
2023/08/16 00:19:19;;;;;;;;;;;;;;;23.69;80.60;99472.00;336964;29;2052;-75
2023/08/16 00:19:29;;;;;;;;;;;;;;;23.69;80.33;99469.34;338500;29;801;-76
2023/08/16 00:19:40;;;;;;;;;;;;;;;23.69;80.28;99472.84;334394;29;1283;-75
2023/08/16 00:19:51;;;;;;;;;;;;;;;23.69;80.40;99474.69;335242;29;879;-75
2023/08/16 00:20:01;;;;;;;;;;;;;;;23.70;80.23;99476.38;335281;29;1094;-75
2023/08/16 00:20:11;;;;;;;;;;;;;;;23.68;80.47;99473.84;334362;29;1240;-75
2023/08/16 00:20:24;;;;;;;;;;;;;;;23.69;80.12;99474.69;331476;29;2591;-75
2023/08/16 00:20:34;;;;;;;;;;;;;;;23.68;80.22;99473.84;329420;29;3470;-75
2023/08/16 00:20:44;;;;;;;;;;;;;;;23.68;80.26;99471.16;328833;29;2476;-75
2023/08/16 00:20:55;;;;;;;;;;;;;;;23.68;80.29;99476.50;328231;30;863;-75
2023/08/16 00:21:05;;;;;;;;;;;;;;;23.68;80.09;99473.00;329538;29;4233;-75
2023/08/16 00:21:15;;;;;;;;;;;;;;;23.68;80.03;99468.50;327494;30;2348;-75
2023/08/16 00:21:26;;;;;;;;;;;;;;;23.69;80.40;99480.03;325780;30;1186;-75
2023/08/16 00:21:36;;;;;;;;;;;;;;;23.68;80.14;99473.00;324583;30;2287;-75
2023/08/16 00:21:46;;;;;;;;;;;;;;;23.68;80.33;99473.00;323570;30;1771;-75
2023/08/16 00:21:57;;;;;;;;;;;;;;;23.67;80.25;99474.81;325891;30;733;-75
2023/08/16 00:22:08;;;;;;;;;;;;;;;23.67;80.36;99472.16;325532;30;1270;-75
2023/08/16 00:22:18;;;;;;;;;;;;;;;23.67;80.14;99476.66;322370;30;2059;-75
2023/08/16 00:22:28;;;;;;;;;;;;;;;23.68;80.54;99473.00;319874;30;1076;-75
2023/08/16 00:22:38;;;;;;;;;;;;;;;23.68;80.50;99473.00;323966;30;2512;-75
2023/08/16 00:22:49;;;;;;;;;;;;;;;23.69;80.69;99485.38;322005;30;2845;-75
2023/08/16 00:22:59;;;;;;;;;;;;;;;23.67;80.61;99482.00;320996;30;1292;-75
2023/08/16 00:23:09;;;;;;;;;;;;;;;23.66;80.18;99485.66;311790;31;1305;-75
2023/08/16 00:23:20;;;;;;;;;;;;;;;23.66;80.15;99485.66;312525;31;3567;-75
2023/08/16 00:23:30;;;;;;;;;;;;;;;23.65;80.39;99483.97;313745;31;3169;-75
2023/08/16 00:23:40;;;;;;;;;;;;;;;23.65;80.31;99489.31;317519;31;1608;-75
2023/08/16 00:23:50;;;;;;;;;;;;;;;23.64;80.53;99484.97;315393;31;3092;-75
2023/08/16 00:24:00;;;;;;;;;;;;;;;23.62;80.38;99479.78;312591;31;2485;-75
2023/08/16 00:24:11;;;;;;;;;;;;;;;23.59;80.27;99480.06;312927;31;1112;-75
2023/08/16 00:24:21;;;;;;;;;;;;;;;23.55;80.47;99482.19;312957;31;2160;-75
2023/08/16 00:24:31;;;;;;;;;;;;;;;23.53;80.55;99483.34;312591;31;2781;-75
2023/08/16 00:24:41;;;;;;;;;;;;;;;23.50;80.35;99478.25;311931;31;1324;-75
2023/08/16 00:24:51;;;;;;;;;;;;;;;23.49;80.48;99488.09;307809;31;3672;-75
2023/08/16 00:25:02;;;;;;;;;;;;;;;23.47;80.95;99482.06;305826;31;4504;-75
2023/08/16 00:25:12;;;;;;;;;;;;;;;23.45;80.93;99484.03;308603;32;878;-75
2023/08/16 00:25:22;;;;;;;;;;;;;;;23.41;80.57;99485.31;312208;31;3367;-75
2023/08/16 00:25:32;;;;;;;;;;;;;;;23.39;80.76;99484.66;311446;31;4856;-75
2023/08/16 00:25:43;;;;;;;;;;;;;;;23.39;80.88;99484.66;310834;31;819;-75
2023/08/16 00:25:53;;;;;;;;;;;;;;;23.40;80.86;99491.66;309193;31;4538;-75
2023/08/16 00:26:03;;;;;;;;;;;;;;;23.41;80.98;99479.13;305282;32;4156;-75
2023/08/16 00:26:13;;;;;;;;;;;;;;;23.42;81.09;99487.00;304326;32;2210;-75
2023/08/16 00:26:24;;;;;;;;;;;;;;;23.43;81.07;99480.69;307938;32;3187;-75
2023/08/16 00:26:34;;;;;;;;;;;;;;;23.45;80.76;99485.88;305745;32;3258;-75
2023/08/16 00:26:45;;;;;;;;;;;;;;;23.45;80.84;99478.69;303750;32;4236;-75
2023/08/16 00:26:55;;;;;;;;;;;;;;;23.46;80.80;99475.03;302269;32;1245;-75
2023/08/16 00:27:05;;;;;;;;;;;;;;;23.49;80.54;99481.91;298963;32;5509;-75
2023/08/16 00:27:15;;;;;;;;;;;;;;;23.50;80.74;99484.44;298306;32;6579;-76
2023/08/16 00:27:25;;;;;;;;;;;;;;;23.50;80.73;99480.94;301317;32;908;-77
2023/08/16 00:27:36;;;;;;;;;;;;;;;23.52;80.29;99485.13;296408;32;5300;-76
2023/08/16 00:27:46;;;;;;;;;;;;;;;23.52;80.28;99479.78;295663;33;7312;-76
2023/08/16 00:27:56;;;;;;;;;;;;;;;23.53;80.35;99480.66;297222;33;1876;-76
2023/08/16 00:28:06;;;;;;;;;;;;;;;23.54;80.77;99477.00;294512;33;5750;-76
2023/08/16 00:28:17;;;;;;;;;;;;;;;23.55;80.83;99484.88;293576;33;5930;-76
2023/08/16 00:28:27;;;;;;;;;;;;;;;23.55;80.40;99482.19;294643;33;1738;-76
2023/08/16 00:28:37;;;;;;;;;;;;;;;23.56;80.23;99480.38;295399;33;4684;-76
2023/08/16 00:28:48;;;;;;;;;;;;;;;23.56;80.24;99485.72;295645;33;4481;-76
2023/08/16 00:28:58;;;;;;;;;;;;;;;23.57;80.14;99475.88;296207;33;901;-75
2023/08/16 00:29:08;;;;;;;;;;;;;;;23.57;80.30;99482.06;293061;33;6303;-75
2023/08/16 00:29:18;;;;;;;;;;;;;;;23.57;80.54;99476.72;290450;33;7525;-75
2023/08/16 00:29:29;;;;;;;;;;;;;;;23.58;80.23;99478.38;288442;34;2973;-75
2023/08/16 00:29:39;;;;;;;;;;;;;;;23.59;80.48;99479.22;282932;34;7948;-76
2023/08/16 00:29:49;;;;;;;;;;;;;;;23.59;80.17;99484.56;285151;34;7841;-75
2023/08/16 00:29:59;;;;;;;;;;;;;;;23.58;80.09;99472.19;286889;34;11376;-76
2023/08/16 00:30:10;;;;;;;;;;;;;;;23.59;79.98;99481.91;286457;34;863;-76
2023/08/16 00:30:20;;;;;;;;;;;;;;;23.58;80.33;99483.72;286176;34;8053;-75
2023/08/16 00:32:07;;;;;;;;;;;;;;;23.60;80.25;99483.59;2503168;27;19936;-76
2023/08/16 00:32:17;;;;;;;;;;;;;;;23.60;79.97;99483.59;354517;27;1272;-76
2023/08/16 00:32:28;;;;;;;;;;;;;;;23.60;80.38;99481.75;353328;28;840;-76
2023/08/16 00:32:38;;;;;;;;;;;;;;;23.60;80.31;99481.75;350455;28;1202;-76
2023/08/16 00:32:48;;;;;;;;;;;;;;;23.61;80.27;99482.59;350348;28;1259;-76
2023/08/16 00:32:58;;;;;;;;;;;;;;;23.59;80.46;99484.56;351674;28;1307;-76
2023/08/16 00:33:08;;;;;;;;;;;;;;;23.55;80.30;99481.34;353212;28;1210;-77
2023/08/16 00:33:19;;;;;;;;;;;;;;;23.50;80.35;99484.44;353303;28;905;-76
2023/08/16 00:33:29;;;;;;;;;;;;;;;23.47;80.62;99479.38;351711;28;1213;-76
2023/08/16 00:33:40;;;;;;;;;;;;;;;23.44;80.98;99476.16;351963;28;866;-76
2023/08/16 00:33:50;;;;;;;;;;;;;;;23.39;80.87;99476.66;351732;28;1337;-76
2023/08/16 00:34:00;;;;;;;;;;;;;;;23.37;80.99;99483.13;351038;28;1337;-76
2023/08/16 00:34:10;;;;;;;;;;;;;;;23.35;81.09;99477.94;350368;28;878;-76
2023/08/16 00:34:21;;;;;;;;;;;;;;;23.33;81.25;99482.56;350443;28;918;-76
2023/08/16 00:34:31;;;;;;;;;;;;;;;23.32;81.27;99482.72;350290;28;1192;-76
2023/08/16 00:34:41;;;;;;;;;;;;;;;23.32;81.39;99480.06;350284;28;1322;-76
2023/08/16 00:34:51;;;;;;;;;;;;;;;23.33;81.55;99479.91;351796;28;1338;-76
2023/08/16 00:35:02;;;;;;;;;;;;;;;23.33;81.28;99479.91;351762;28;942;-76
2023/08/16 00:35:12;;;;;;;;;;;;;;;23.32;81.15;99477.38;350412;28;852;-76
2023/08/16 00:35:22;;;;;;;;;;;;;;;23.30;81.35;99480.19;349138;28;852;-76
2023/08/16 00:35:32;;;;;;;;;;;;;;;23.30;81.38;99480.19;349037;28;919;-76
2023/08/16 00:35:43;;;;;;;;;;;;;;;23.30;81.32;99479.34;348887;28;1390;-76
2023/08/16 00:35:53;;;;;;;;;;;;;;;23.30;81.29;99477.53;348840;28;1187;-76
2023/08/16 00:36:03;;;;;;;;;;;;;;;23.29;81.12;99473.16;348897;28;1245;-76
2023/08/16 00:36:13;;;;;;;;;;;;;;;23.29;81.03;99478.50;349216;28;1398;-76
2023/08/16 00:36:24;;;;;;;;;;;;;;;23.29;81.12;99478.50;349438;28;1368;-76
2023/08/16 00:36:34;;;;;;;;;;;;;;;23.28;81.33;99476.81;348666;28;1285;-75
2023/08/16 00:36:44;;;;;;;;;;;;;;;23.29;81.28;99478.50;347577;28;1212;-75
2023/08/16 00:36:54;;;;;;;;;;;;;;;23.30;81.38;99480.19;346293;28;1208;-76
2023/08/16 00:37:05;;;;;;;;;;;;;;;23.30;81.51;99476.69;346947;28;1600;-75
2023/08/16 00:37:15;;;;;;;;;;;;;;;23.29;81.23;99478.50;346132;28;1271;-75
2023/08/16 00:37:25;;;;;;;;;;;;;;;23.28;81.13;99476.81;344985;28;850;-76
2023/08/16 00:37:35;;;;;;;;;;;;;;;23.27;81.36;99480.50;343571;28;1532;-76
2023/08/16 00:37:46;;;;;;;;;;;;;;;23.29;81.23;99477.66;342781;28;1404;-76
2023/08/16 00:37:58;;;;;;;;;;;;;;;23.29;81.24;99477.66;343482;28;1204;-76
2023/08/16 00:38:08;;;;;;;;;;;;;;;23.31;80.92;99479.22;344421;28;1290;-75
2023/08/16 00:38:19;;;;;;;;;;;;;;;23.33;81.41;99473.72;346283;28;1239;-75
2023/08/16 00:38:29;;;;;;;;;;;;;;;23.34;81.21;99481.59;344782;28;1071;-75
2023/08/16 00:38:42;;;;;;;;;;;;;;;23.35;81.15;99477.09;340269;28;3156;-75
2023/08/16 00:38:52;;;;;;;;;;;;;;;23.37;80.81;99481.28;339348;29;1459;-76
2023/08/16 00:39:03;;;;;;;;;;;;;;;23.39;80.94;99479.31;341863;28;1473;-76
2023/08/16 00:39:13;;;;;;;;;;;;;;;23.40;80.76;99480.97;340811;29;1281;-76
2023/08/16 00:39:23;;;;;;;;;;;;;;;23.42;80.79;99480.81;340891;29;1434;-76
2023/08/16 00:39:34;;;;;;;;;;;;;;;23.42;80.54;99481.66;342003;28;915;-76
2023/08/16 00:39:44;;;;;;;;;;;;;;;23.44;80.69;99476.16;342058;28;1221;-76
2023/08/16 00:39:54;;;;;;;;;;;;;;;23.45;80.46;99483.19;339519;29;1364;-76
2023/08/16 00:40:05;;;;;;;;;;;;;;;23.45;80.83;99473.34;342046;28;1296;-76
2023/08/16 00:40:16;;;;;;;;;;;;;;;23.46;80.69;99475.03;342506;28;1392;-76
2023/08/16 00:40:26;;;;;;;;;;;;;;;23.47;80.70;99479.38;343636;28;1168;-76
2023/08/16 00:40:36;;;;;;;;;;;;;;;23.48;80.45;99480.22;346361;28;900;-76
2023/08/16 00:40:49;;;;;;;;;;;;;;;23.47;80.43;99476.72;343461;28;1494;-76
2023/08/16 00:40:59;;;;;;;;;;;;;;;23.49;80.80;99482.75;341120;28;1910;-76
2023/08/16 00:41:10;;;;;;;;;;;;;;;23.49;80.49;99479.25;340795;29;1186;-76
2023/08/16 00:41:20;;;;;;;;;;;;;;;23.49;80.51;99480.09;340872;29;877;-76
2023/08/16 00:41:30;;;;;;;;;;;;;;;23.49;80.50;99485.44;340649;29;1443;-76
2023/08/16 00:41:41;;;;;;;;;;;;;;;23.49;80.38;99480.09;342082;28;937;-76
2023/08/16 00:41:51;;;;;;;;;;;;;;;23.49;80.41;99480.09;342300;28;920;-76
2023/08/16 00:42:01;;;;;;;;;;;;;;;23.50;80.72;99483.59;338636;29;1381;-76
2023/08/16 00:42:11;;;;;;;;;;;;;;;23.50;80.35;99478.25;336423;29;1680;-76
2023/08/16 00:42:22;;;;;;;;;;;;;;;23.49;80.73;99480.09;334411;29;1240;-76
2023/08/16 00:42:32;;;;;;;;;;;;;;;23.51;80.49;99480.78;337007;29;1829;-76
2023/08/16 00:42:42;;;;;;;;;;;;;;;23.50;80.61;99478.25;339343;28;2095;-76
2023/08/16 00:42:52;;;;;;;;;;;;;;;23.50;80.70;99481.75;337034;29;892;-76
2023/08/16 00:43:03;;;;;;;;;;;;;;;23.51;80.92;99483.44;340967;28;2125;-76
2023/08/16 00:43:13;;;;;;;;;;;;;;;23.50;80.87;99481.75;339550;29;1735;-76
2023/08/16 00:43:23;;;;;;;;;;;;;;;23.51;80.75;99478.09;338312;29;1198;-76
2023/08/16 00:43:34;;;;;;;;;;;;;;;23.51;80.49;99488.78;336839;29;1194;-76
2023/08/16 00:43:44;;;;;;;;;;;;;;;23.51;80.83;99483.44;337070;29;1141;-76
2023/08/16 00:43:54;;;;;;;;;;;;;;;23.51;80.69;99478.09;335770;29;1371;-75
2023/08/16 00:44:04;;;;;;;;;;;;;;;23.52;80.75;99479.78;336504;29;1989;-75
2023/08/16 00:44:15;;;;;;;;;;;;;;;23.51;80.93;99483.44;336469;29;1984;-75
2023/08/16 00:44:25;;;;;;;;;;;;;;;23.53;81.02;99486.84;335692;29;1350;-75
2023/08/16 00:44:35;;;;;;;;;;;;;;;23.52;80.83;99485.13;333954;29;2503;-75
2023/08/16 00:44:45;;;;;;;;;;;;;;;23.53;81.04;99481.50;333261;29;2602;-75
2023/08/16 00:44:56;;;;;;;;;;;;;;;23.52;80.50;99485.13;332670;29;2620;-75
2023/08/16 00:45:06;;;;;;;;;;;;;;;23.53;80.52;99481.50;333200;29;1100;-75
2023/08/16 00:45:16;;;;;;;;;;;;;;;23.54;80.58;99487.69;333946;29;2590;-75
2023/08/16 00:45:26;;;;;;;;;;;;;;;23.54;80.59;99485.03;330524;29;1807;-76
2023/08/16 00:45:37;;;;;;;;;;;;;;;23.53;80.48;99481.50;331837;29;960;-76
2023/08/16 00:45:47;;;;;;;;;;;;;;;23.53;80.82;99484.19;328973;29;1399;-76
2023/08/16 00:45:57;;;;;;;;;;;;;;;23.53;80.61;99486.84;326465;30;2009;-76
2023/08/16 00:46:09;;;;;;;;;;;;;;;23.53;80.39;99486.84;326821;30;1174;-76
2023/08/16 00:46:20;;;;;;;;;;;;;;;23.53;80.57;99480.66;329659;29;2442;-76
2023/08/16 00:46:30;;;;;;;;;;;;;;;23.52;80.45;99479.78;330517;29;2782;-75
2023/08/16 00:46:40;;;;;;;;;;;;;;;23.52;80.18;99484.28;326375;30;3517;-75
2023/08/16 00:46:51;;;;;;;;;;;;;;;23.52;80.26;99485.13;320952;30;785;-75
2023/08/16 00:47:01;;;;;;;;;;;;;;;23.52;80.47;99479.78;324727;30;3897;-75
2023/08/16 00:47:11;;;;;;;;;;;;;;;23.52;80.14;99484.28;325104;30;3271;-75
2023/08/16 00:47:21;;;;;;;;;;;;;;;23.52;80.51;99482.47;324520;30;1358;-75
2023/08/16 00:47:32;;;;;;;;;;;;;;;23.52;80.17;99484.28;325917;30;3429;-76
2023/08/16 00:47:42;;;;;;;;;;;;;;;23.52;80.29;99477.13;324265;30;2542;-76
2023/08/16 00:47:53;;;;;;;;;;;;;;;23.51;80.15;99478.09;321558;30;3234;-76
2023/08/16 00:48:03;;;;;;;;;;;;;;;23.52;80.30;99485.13;317539;30;2066;-76
2023/08/16 00:48:13;;;;;;;;;;;;;;;23.52;80.29;99478.94;317496;30;2805;-76
2023/08/16 00:48:23;;;;;;;;;;;;;;;23.52;80.02;99477.13;322210;30;923;-76
2023/08/16 00:48:34;;;;;;;;;;;;;;;23.52;80.20;99479.78;319726;30;3709;-77
2023/08/16 00:48:44;;;;;;;;;;;;;;;23.52;80.21;99477.13;319773;30;6065;-76
2023/08/16 00:48:54;;;;;;;;;;;;;;;23.53;80.00;99481.50;322243;30;860;-76
2023/08/16 00:49:05;;;;;;;;;;;;;;;23.52;79.99;99479.78;321059;30;4683;-76
2023/08/16 00:49:15;;;;;;;;;;;;;;;23.53;80.19;99476.16;319525;30;4610;-76
2023/08/16 00:49:25;;;;;;;;;;;;;;;23.52;80.47;99479.78;318625;31;1198;-76
2023/08/16 00:49:39;;;;;;;;;;;;;;;23.53;80.38;99476.16;316877;31;4558;-76
2023/08/16 00:49:49;;;;;;;;;;;;;;;23.52;80.20;99477.13;317791;30;4552;-76
2023/08/16 00:49:59;;;;;;;;;;;;;;;23.51;80.22;99478.09;317184;30;3459;-76
2023/08/16 00:50:10;;;;;;;;;;;;;;;23.52;80.30;99478.94;318620;31;873;-76
2023/08/16 00:50:23;;;;;;;;;;;;;;;23.51;80.40;99479.94;317959;31;3103;-76
2023/08/16 00:50:33;;;;;;;;;;;;;;;23.52;80.51;99484.28;318570;30;4330;-76
2023/08/16 00:50:44;;;;;;;;;;;;;;;23.51;80.30;99478.09;316469;31;5441;-76
2023/08/16 00:50:54;;;;;;;;;;;;;;;23.52;80.68;99478.94;317459;31;1292;-76
2023/08/16 00:51:05;;;;;;;;;;;;;;;23.52;80.14;99476.28;317107;30;5409;-76
2023/08/16 00:51:15;;;;;;;;;;;;;;;23.52;80.12;99484.28;310923;31;6355;-76
2023/08/16 00:51:25;;;;;;;;;;;;;;;23.51;80.29;99475.44;306483;32;1174;-76
2023/08/16 00:51:35;;;;;;;;;;;;;;;23.51;80.28;99477.25;312040;31;6260;-75
2023/08/16 00:51:46;;;;;;;;;;;;;;;23.50;80.18;99476.44;310362;31;6166;-76
2023/08/16 00:51:56;;;;;;;;;;;;;;;23.50;80.26;99476.44;308470;31;5994;-76
2023/08/16 00:52:06;;;;;;;;;;;;;;;23.51;80.22;99474.59;304191;32;2038;-76
2023/08/16 00:52:16;;;;;;;;;;;;;;;23.51;80.49;99478.09;305062;32;4180;-76
2023/08/16 00:52:26;;;;;;;;;;;;;;;23.51;80.36;99478.09;306743;32;4996;-76
2023/08/16 00:52:37;;;;;;;;;;;;;;;23.51;80.31;99478.09;308632;32;1397;-76
2023/08/16 00:52:47;;;;;;;;;;;;;;;23.51;80.12;99478.09;304892;32;6029;-76
2023/08/16 00:52:57;;;;;;;;;;;;;;;23.52;79.91;99477.13;300563;32;7045;-76
2023/08/16 00:53:08;;;;;;;;;;;;;;;23.52;80.50;99477.13;298074;33;1218;-76
2023/08/16 00:53:18;;;;;;;;;;;;;;;23.51;80.51;99472.75;295765;33;7872;-75
2023/08/16 00:53:29;;;;;;;;;;;;;;;23.52;80.41;99478.94;295425;33;8601;-75
2023/08/16 00:53:39;;;;;;;;;;;;;;;23.53;80.53;99475.31;297210;33;1032;-75
2023/08/16 00:53:50;;;;;;;;;;;;;;;23.52;80.63;99479.78;296553;33;8744;-75
2023/08/16 00:54:00;;;;;;;;;;;;;;;23.52;80.40;99471.78;293621;33;8620;-75
2023/08/16 00:54:10;;;;;;;;;;;;;;;23.53;80.38;99473.50;295071;33;1254;-75
2023/08/16 00:54:20;;;;;;;;;;;;;;;23.52;80.36;99479.78;295635;33;8668;-75
2023/08/16 00:54:31;;;;;;;;;;;;;;;23.52;80.36;99476.28;295849;33;5916;-76
2023/08/16 00:56:18;;;;;;;;;;;;;;;23.34;80.76;99476.25;2501107;27;20559;-75
2023/08/16 00:56:28;;;;;;;;;;;;;;;23.33;81.09;99469.22;354472;27;1364;-75
2023/08/16 00:56:39;;;;;;;;;;;;;;;23.31;81.20;99481.88;351825;28;1234;-75
2023/08/16 00:56:49;;;;;;;;;;;;;;;23.30;80.90;99474.84;350255;28;2383;-75
2023/08/16 00:56:59;;;;;;;;;;;;;;;23.29;81.47;99478.50;347729;28;3142;-75
2023/08/16 00:57:09;;;;;;;;;;;;;;;23.29;81.32;99478.50;347450;28;1402;-75
2023/08/16 00:57:20;;;;;;;;;;;;;;;23.28;81.28;99474.16;347646;28;1154;-76
2023/08/16 00:57:30;;;;;;;;;;;;;;;23.27;81.55;99477.81;347713;28;805;-76
2023/08/16 00:57:40;;;;;;;;;;;;;;;23.27;81.66;99477.81;347521;28;1306;-76
2023/08/16 00:57:50;;;;;;;;;;;;;;;23.27;81.32;99480.50;349021;28;1299;-76
2023/08/16 00:58:01;;;;;;;;;;;;;;;23.26;81.36;99478.81;351519;28;791;-76
2023/08/16 00:58:11;;;;;;;;;;;;;;;23.27;81.65;99475.16;352145;28;1242;-76
2023/08/16 00:58:21;;;;;;;;;;;;;;;23.28;81.23;99475.97;354751;27;1044;-75
2023/08/16 00:58:31;;;;;;;;;;;;;;;23.27;81.24;99469.81;349007;28;1525;-75
2023/08/16 00:58:42;;;;;;;;;;;;;;;23.30;81.20;99476.69;348259;28;1359;-75
2023/08/16 00:58:52;;;;;;;;;;;;;;;23.31;81.18;99470.34;347632;28;883;-75
2023/08/16 00:59:03;;;;;;;;;;;;;;;23.32;81.06;99474.72;350342;28;1628;-75
2023/08/16 00:59:13;;;;;;;;;;;;;;;23.33;81.23;99479.91;351644;28;1404;-75
2023/08/16 00:59:23;;;;;;;;;;;;;;;23.33;81.29;99474.56;350564;28;903;-75
2023/08/16 00:59:33;;;;;;;;;;;;;;;23.34;81.44;99476.25;351786;28;1208;-75
2023/08/16 00:59:44;;;;;;;;;;;;;;;23.35;81.51;99477.09;351235;28;1034;-75
2023/08/16 00:59:54;;;;;;;;;;;;;;;23.35;81.35;99477.94;348908;28;1456;-75
2023/08/16 01:00:05;;;;;;;;;;;;;;;23.37;81.46;99478.63;348995;28;1240;-75
2023/08/16 01:00:15;;;;;;;;;;;;;;;23.37;81.73;99475.94;349932;28;1046;-75
2023/08/16 01:00:26;;;;;;;;;;;;;;;23.37;81.72;99475.94;348891;28;1286;-75
2023/08/16 01:00:36;;;;;;;;;;;;;;;23.38;81.34;99476.78;347571;28;1720;-75
2023/08/16 01:00:46;;;;;;;;;;;;;;;23.40;81.38;99480.97;346099;28;1292;-75
2023/08/16 01:00:57;;;;;;;;;;;;;;;23.39;81.25;99482.00;347674;28;1014;-75
2023/08/16 01:01:07;;;;;;;;;;;;;;;23.40;81.21;99480.13;347448;28;1191;-75